sensor_id;sensor_type;location;lat;lon;timestamp;temperature;humidity
23597;DHT22;40226;50.874;4.394;2023-04-16T00:02:19;9.70;88.30
23597;DHT22;40226;50.874;4.394;2023-04-16T00:04:45;9.70;90.00
23597;DHT22;40226;50.874;4.394;2023-04-16T00:07:11;9.60;93.40
23597;DHT22;40226;50.874;4.394;2023-04-16T00:09:36;9.60;97.80
23597;DHT22;40226;50.874;4.394;2023-04-16T00:12:02;9.70;97.70
23597;DHT22;40226;50.874;4.394;2023-04-16T00:14:28;9.80;75.40
23597;DHT22;40226;50.874;4.394;2023-04-16T00:16:54;9.70;74.50
23597;DHT22;40226;50.874;4.394;2023-04-16T00:19:20;9.70;76.20
23597;DHT22;40226;50.874;4.394;2023-04-16T00:21:46;9.60;81.90
23597;DHT22;40226;50.874;4.394;2023-04-16T00:24:11;9.70;78.80
23597;DHT22;40226;50.874;4.394;2023-04-16T00:26:37;9.70;74.70
23597;DHT22;40226;50.874;4.394;2023-04-16T00:29:02;9.60;92.10
23597;DHT22;40226;50.874;4.394;2023-04-16T00:31:29;9.60;92.40
23597;DHT22;40226;50.874;4.394;2023-04-16T00:33:55;9.80;87.20
23597;DHT22;40226;50.874;4.394;2023-04-16T00:36:25;9.90;76.90
23597;DHT22;40226;50.874;4.394;2023-04-16T00:38:51;10.10;67.30
23597;DHT22;40226;50.874;4.394;2023-04-16T00:41:17;10.10;62.50
23597;DHT22;40226;50.874;4.394;2023-04-16T00:43:43;10.20;58.30
23597;DHT22;40226;50.874;4.394;2023-04-16T00:46:08;10.30;47.70
23597;DHT22;40226;50.874;4.394;2023-04-16T00:48:37;10.30;49.80
23597;DHT22;40226;50.874;4.394;2023-04-16T00:51:06;10.40;40.10
23597;DHT22;40226;50.874;4.394;2023-04-16T00:53:32;10.30;46.00
23597;DHT22;40226;50.874;4.394;2023-04-16T00:55:59;10.00;70.90
23597;DHT22;40226;50.874;4.394;2023-04-16T00:58:25;10.00;73.20
23597;DHT22;40226;50.874;4.394;2023-04-16T01:00:51;10.10;68.00
23597;DHT22;40226;50.874;4.394;2023-04-16T01:03:17;10.10;72.10
23597;DHT22;40226;50.874;4.394;2023-04-16T01:05:42;10.10;63.70
23597;DHT22;40226;50.874;4.394;2023-04-16T01:08:17;10.20;56.30
23597;DHT22;40226;50.874;4.394;2023-04-16T01:10:43;10.20;55.40
23597;DHT22;40226;50.874;4.394;2023-04-16T01:13:09;9.90;65.60
23597;DHT22;40226;50.874;4.394;2023-04-16T01:15:35;9.90;69.30
23597;DHT22;40226;50.874;4.394;2023-04-16T01:18:01;9.90;69.30
23597;DHT22;40226;50.874;4.394;2023-04-16T01:20:27;9.90;58.30
23597;DHT22;40226;50.874;4.394;2023-04-16T01:22:52;9.80;65.30
23597;DHT22;40226;50.874;4.394;2023-04-16T01:25:18;9.80;67.00
23597;DHT22;40226;50.874;4.394;2023-04-16T01:27:43;9.90;59.10
23597;DHT22;40226;50.874;4.394;2023-04-16T01:30:09;9.90;55.50
23597;DHT22;40226;50.874;4.394;2023-04-16T01:32:35;9.90;59.10
23597;DHT22;40226;50.874;4.394;2023-04-16T01:35:01;10.00;55.50
23597;DHT22;40226;50.874;4.394;2023-04-16T01:37:26;10.10;54.10
23597;DHT22;40226;50.874;4.394;2023-04-16T01:39:52;10.00;56.60
23597;DHT22;40226;50.874;4.394;2023-04-16T01:42:17;10.00;51.30
23597;DHT22;40226;50.874;4.394;2023-04-16T01:44:43;10.10;49.90
23597;DHT22;40226;50.874;4.394;2023-04-16T01:47:11;10.10;54.30
23597;DHT22;40226;50.874;4.394;2023-04-16T01:49:37;10.00;55.40
23597;DHT22;40226;50.874;4.394;2023-04-16T01:52:03;10.00;64.20
23597;DHT22;40226;50.874;4.394;2023-04-16T01:54:28;10.00;61.70
23597;DHT22;40226;50.874;4.394;2023-04-16T01:56:54;10.00;67.30
23597;DHT22;40226;50.874;4.394;2023-04-16T01:59:19;10.00;63.10
23597;DHT22;40226;50.874;4.394;2023-04-16T02:01:45;10.00;63.00
23597;DHT22;40226;50.874;4.394;2023-04-16T02:04:11;10.00;68.10
23597;DHT22;40226;50.874;4.394;2023-04-16T02:06:37;10.20;57.70
23597;DHT22;40226;50.874;4.394;2023-04-16T02:09:02;10.30;50.90
23597;DHT22;40226;50.874;4.394;2023-04-16T02:11:28;10.20;52.10
23597;DHT22;40226;50.874;4.394;2023-04-16T02:13:54;10.00;68.10
23597;DHT22;40226;50.874;4.394;2023-04-16T02:16:19;9.90;68.50
23597;DHT22;40226;50.874;4.394;2023-04-16T02:18:45;9.80;82.70
23597;DHT22;40226;50.874;4.394;2023-04-16T02:21:10;9.90;81.70
23597;DHT22;40226;50.874;4.394;2023-04-16T02:23:36;10.00;73.10
23597;DHT22;40226;50.874;4.394;2023-04-16T02:26:05;10.00;79.30
23597;DHT22;40226;50.874;4.394;2023-04-16T02:28:30;9.90;86.70
23597;DHT22;40226;50.874;4.394;2023-04-16T02:30:56;10.00;76.60
23597;DHT22;40226;50.874;4.394;2023-04-16T02:33:22;9.90;90.10
23597;DHT22;40226;50.874;4.394;2023-04-16T02:35:50;10.10;77.50
23597;DHT22;40226;50.874;4.394;2023-04-16T02:38:15;10.10;75.40
23597;DHT22;40226;50.874;4.394;2023-04-16T02:40:41;10.00;76.10
23597;DHT22;40226;50.874;4.394;2023-04-16T02:43:06;10.00;88.10
23597;DHT22;40226;50.874;4.394;2023-04-16T02:45:32;9.90;92.30
23597;DHT22;40226;50.874;4.394;2023-04-16T02:47:58;9.90;93.00
23597;DHT22;40226;50.874;4.394;2023-04-16T02:50:25;10.10;90.00
23597;DHT22;40226;50.874;4.394;2023-04-16T02:52:50;10.10;91.00
23597;DHT22;40226;50.874;4.394;2023-04-16T02:55:16;10.20;84.50
23597;DHT22;40226;50.874;4.394;2023-04-16T02:57:42;10.30;78.70
23597;DHT22;40226;50.874;4.394;2023-04-16T03:00:08;10.30;75.00
23597;DHT22;40226;50.874;4.394;2023-04-16T03:02:33;10.30;70.60
23597;DHT22;40226;50.874;4.394;2023-04-16T03:04:59;10.40;70.90
23597;DHT22;40226;50.874;4.394;2023-04-16T03:07:24;10.30;76.30
23597;DHT22;40226;50.874;4.394;2023-04-16T03:09:50;10.10;87.20
23597;DHT22;40226;50.874;4.394;2023-04-16T03:12:16;10.10;91.10
23597;DHT22;40226;50.874;4.394;2023-04-16T03:14:41;10.10;90.60
23597;DHT22;40226;50.874;4.394;2023-04-16T03:17:07;10.10;92.40
23597;DHT22;40226;50.874;4.394;2023-04-16T03:19:33;10.30;85.30
23597;DHT22;40226;50.874;4.394;2023-04-16T03:21:58;10.20;91.30
23597;DHT22;40226;50.874;4.394;2023-04-16T03:24:24;10.30;81.80
23597;DHT22;40226;50.874;4.394;2023-04-16T03:26:50;10.40;82.10
23597;DHT22;40226;50.874;4.394;2023-04-16T03:29:16;10.40;82.10
23597;DHT22;40226;50.874;4.394;2023-04-16T03:31:41;10.20;90.60
23597;DHT22;40226;50.874;4.394;2023-04-16T03:34:07;10.00;95.80
23597;DHT22;40226;50.874;4.394;2023-04-16T03:36:33;10.10;98.00
23597;DHT22;40226;50.874;4.394;2023-04-16T03:38:58;10.20;95.90
23597;DHT22;40226;50.874;4.394;2023-04-16T03:41:24;10.30;93.40
23597;DHT22;40226;50.874;4.394;2023-04-16T03:43:49;10.40;87.70
23597;DHT22;40226;50.874;4.394;2023-04-16T03:46:15;10.40;87.80
23597;DHT22;40226;50.874;4.394;2023-04-16T03:48:41;10.40;87.90
23597;DHT22;40226;50.874;4.394;2023-04-16T03:51:06;10.30;93.50
23597;DHT22;40226;50.874;4.394;2023-04-16T03:53:32;10.40;92.50
23597;DHT22;40226;50.874;4.394;2023-04-16T03:55:57;10.40;90.80
23597;DHT22;40226;50.874;4.394;2023-04-16T03:58:23;10.30;90.10
23597;DHT22;40226;50.874;4.394;2023-04-16T04:00:50;10.20;96.80
23597;DHT22;40226;50.874;4.394;2023-04-16T04:03:17;10.10;99.90
23597;DHT22;40226;50.874;4.394;2023-04-16T04:05:43;10.20;99.90
23597;DHT22;40226;50.874;4.394;2023-04-16T04:08:09;10.20;99.90
23597;DHT22;40226;50.874;4.394;2023-04-16T04:10:35;10.00;99.90
23597;DHT22;40226;50.874;4.394;2023-04-16T04:13:03;9.90;99.90
23597;DHT22;40226;50.874;4.394;2023-04-16T04:15:29;9.90;99.90
23597;DHT22;40226;50.874;4.394;2023-04-16T04:17:55;9.80;99.90
23597;DHT22;40226;50.874;4.394;2023-04-16T04:20:21;9.70;99.90
23597;DHT22;40226;50.874;4.394;2023-04-16T04:22:46;9.80;99.90
23597;DHT22;40226;50.874;4.394;2023-04-16T04:25:12;9.70;99.90
23597;DHT22;40226;50.874;4.394;2023-04-16T04:27:38;9.50;99.90
23597;DHT22;40226;50.874;4.394;2023-04-16T04:30:04;9.40;99.90
23597;DHT22;40226;50.874;4.394;2023-04-16T04:32:30;9.60;99.90
23597;DHT22;40226;50.874;4.394;2023-04-16T04:34:57;9.70;99.90
23597;DHT22;40226;50.874;4.394;2023-04-16T04:37:23;9.70;99.90
23597;DHT22;40226;50.874;4.394;2023-04-16T04:39:48;9.70;99.90
23597;DHT22;40226;50.874;4.394;2023-04-16T04:42:16;9.50;99.90
23597;DHT22;40226;50.874;4.394;2023-04-16T04:44:43;9.70;99.90
23597;DHT22;40226;50.874;4.394;2023-04-16T04:47:08;9.80;99.90
23597;DHT22;40226;50.874;4.394;2023-04-16T04:49:34;9.80;99.90
23597;DHT22;40226;50.874;4.394;2023-04-16T04:51:59;9.80;99.90
23597;DHT22;40226;50.874;4.394;2023-04-16T04:54:27;9.60;99.90
23597;DHT22;40226;50.874;4.394;2023-04-16T04:56:52;9.50;99.90
23597;DHT22;40226;50.874;4.394;2023-04-16T04:59:19;9.60;99.90
23597;DHT22;40226;50.874;4.394;2023-04-16T05:01:45;9.80;99.90
23597;DHT22;40226;50.874;4.394;2023-04-16T05:04:10;9.70;99.90
23597;DHT22;40226;50.874;4.394;2023-04-16T05:06:36;9.80;99.90
23597;DHT22;40226;50.874;4.394;2023-04-16T05:09:02;9.90;99.90
23597;DHT22;40226;50.874;4.394;2023-04-16T05:11:28;9.90;99.90
23597;DHT22;40226;50.874;4.394;2023-04-16T05:13:53;9.90;99.90
23597;DHT22;40226;50.874;4.394;2023-04-16T05:16:19;9.80;99.90
23597;DHT22;40226;50.874;4.394;2023-04-16T05:18:44;9.70;99.90
23597;DHT22;40226;50.874;4.394;2023-04-16T05:21:10;9.80;99.90
23597;DHT22;40226;50.874;4.394;2023-04-16T05:23:36;9.90;99.90
23597;DHT22;40226;50.874;4.394;2023-04-16T05:26:01;10.00;99.90
23597;DHT22;40226;50.874;4.394;2023-04-16T05:28:27;10.00;99.90
23597;DHT22;40226;50.874;4.394;2023-04-16T05:30:53;10.10;99.90
23597;DHT22;40226;50.874;4.394;2023-04-16T05:33:18;10.10;99.90
23597;DHT22;40226;50.874;4.394;2023-04-16T05:35:44;10.20;99.90
23597;DHT22;40226;50.874;4.394;2023-04-16T05:38:09;10.00;99.90
23597;DHT22;40226;50.874;4.394;2023-04-16T05:40:35;10.00;99.90
23597;DHT22;40226;50.874;4.394;2023-04-16T05:43:00;10.10;99.90
23597;DHT22;40226;50.874;4.394;2023-04-16T05:45:26;10.00;99.90
23597;DHT22;40226;50.874;4.394;2023-04-16T05:47:52;9.90;99.90
23597;DHT22;40226;50.874;4.394;2023-04-16T05:50:17;10.00;99.90
23597;DHT22;40226;50.874;4.394;2023-04-16T05:52:43;10.10;99.90
23597;DHT22;40226;50.874;4.394;2023-04-16T05:55:08;10.10;99.90
23597;DHT22;40226;50.874;4.394;2023-04-16T05:57:34;10.10;99.90
23597;DHT22;40226;50.874;4.394;2023-04-16T06:00:00;10.00;99.90
23597;DHT22;40226;50.874;4.394;2023-04-16T06:02:26;9.90;99.90
23597;DHT22;40226;50.874;4.394;2023-04-16T06:04:51;9.90;99.90
23597;DHT22;40226;50.874;4.394;2023-04-16T06:07:17;9.60;99.90
23597;DHT22;40226;50.874;4.394;2023-04-16T06:09:43;9.80;99.90
23597;DHT22;40226;50.874;4.394;2023-04-16T06:12:09;9.90;99.90
23597;DHT22;40226;50.874;4.394;2023-04-16T06:14:35;9.90;99.90
23597;DHT22;40226;50.874;4.394;2023-04-16T06:17:00;9.90;99.90
23597;DHT22;40226;50.874;4.394;2023-04-16T06:19:26;9.90;99.90
23597;DHT22;40226;50.874;4.394;2023-04-16T06:21:52;9.90;99.90
23597;DHT22;40226;50.874;4.394;2023-04-16T06:24:18;9.90;99.90
23597;DHT22;40226;50.874;4.394;2023-04-16T06:26:43;9.90;99.90
23597;DHT22;40226;50.874;4.394;2023-04-16T06:29:09;9.90;99.90
23597;DHT22;40226;50.874;4.394;2023-04-16T06:31:36;9.90;99.90
23597;DHT22;40226;50.874;4.394;2023-04-16T06:34:01;9.90;99.90
23597;DHT22;40226;50.874;4.394;2023-04-16T06:36:27;9.90;99.90
23597;DHT22;40226;50.874;4.394;2023-04-16T06:38:53;9.90;99.90
23597;DHT22;40226;50.874;4.394;2023-04-16T06:41:19;10.00;99.90
23597;DHT22;40226;50.874;4.394;2023-04-16T06:43:44;9.80;99.90
23597;DHT22;40226;50.874;4.394;2023-04-16T06:46:10;9.90;99.90
23597;DHT22;40226;50.874;4.394;2023-04-16T06:48:36;10.00;99.90
23597;DHT22;40226;50.874;4.394;2023-04-16T06:51:01;9.90;99.90
23597;DHT22;40226;50.874;4.394;2023-04-16T06:53:27;9.90;99.90
23597;DHT22;40226;50.874;4.394;2023-04-16T06:55:52;9.80;99.90
23597;DHT22;40226;50.874;4.394;2023-04-16T06:58:18;9.80;99.90
23597;DHT22;40226;50.874;4.394;2023-04-16T07:00:44;10.00;99.90
23597;DHT22;40226;50.874;4.394;2023-04-16T07:03:10;10.00;99.90
23597;DHT22;40226;50.874;4.394;2023-04-16T07:05:35;9.90;99.90
23597;DHT22;40226;50.874;4.394;2023-04-16T07:08:01;9.80;99.90
23597;DHT22;40226;50.874;4.394;2023-04-16T07:10:27;9.80;99.90
23597;DHT22;40226;50.874;4.394;2023-04-16T07:12:52;9.70;99.90
23597;DHT22;40226;50.874;4.394;2023-04-16T07:15:18;9.90;99.90
23597;DHT22;40226;50.874;4.394;2023-04-16T07:17:43;10.00;99.90
23597;DHT22;40226;50.874;4.394;2023-04-16T07:20:09;10.00;99.90
23597;DHT22;40226;50.874;4.394;2023-04-16T07:22:35;9.80;99.90
23597;DHT22;40226;50.874;4.394;2023-04-16T07:25:01;9.90;99.90
23597;DHT22;40226;50.874;4.394;2023-04-16T07:27:26;9.90;99.90
23597;DHT22;40226;50.874;4.394;2023-04-16T07:29:52;10.00;99.90
23597;DHT22;40226;50.874;4.394;2023-04-16T07:32:20;10.00;99.90
23597;DHT22;40226;50.874;4.394;2023-04-16T07:34:46;10.20;99.90
23597;DHT22;40226;50.874;4.394;2023-04-16T07:37:12;10.10;99.90
23597;DHT22;40226;50.874;4.394;2023-04-16T07:39:37;10.10;99.90
23597;DHT22;40226;50.874;4.394;2023-04-16T07:42:03;10.10;99.90
23597;DHT22;40226;50.874;4.394;2023-04-16T07:44:29;10.00;99.90
23597;DHT22;40226;50.874;4.394;2023-04-16T07:46:54;10.00;99.90
23597;DHT22;40226;50.874;4.394;2023-04-16T07:49:20;9.90;99.90
23597;DHT22;40226;50.874;4.394;2023-04-16T07:51:45;9.90;99.90
23597;DHT22;40226;50.874;4.394;2023-04-16T07:54:11;9.90;99.90
23597;DHT22;40226;50.874;4.394;2023-04-16T07:56:37;10.00;99.90
23597;DHT22;40226;50.874;4.394;2023-04-16T07:59:02;10.20;99.90
23597;DHT22;40226;50.874;4.394;2023-04-16T08:01:28;10.40;99.90
23597;DHT22;40226;50.874;4.394;2023-04-16T08:03:53;10.40;99.90
23597;DHT22;40226;50.874;4.394;2023-04-16T08:06:19;10.60;99.90
23597;DHT22;40226;50.874;4.394;2023-04-16T08:08:45;10.50;99.90
23597;DHT22;40226;50.874;4.394;2023-04-16T08:11:11;10.50;99.90
23597;DHT22;40226;50.874;4.394;2023-04-16T08:13:36;10.40;99.90
23597;DHT22;40226;50.874;4.394;2023-04-16T08:16:02;10.40;99.90
23597;DHT22;40226;50.874;4.394;2023-04-16T08:18:27;10.50;99.90
23597;DHT22;40226;50.874;4.394;2023-04-16T08:20:53;10.60;99.90
23597;DHT22;40226;50.874;4.394;2023-04-16T08:23:19;10.60;99.90
23597;DHT22;40226;50.874;4.394;2023-04-16T08:25:46;10.50;99.90
23597;DHT22;40226;50.874;4.394;2023-04-16T08:28:12;10.40;99.90
23597;DHT22;40226;50.874;4.394;2023-04-16T08:30:37;10.40;99.90
23597;DHT22;40226;50.874;4.394;2023-04-16T08:33:03;10.40;99.90
23597;DHT22;40226;50.874;4.394;2023-04-16T08:35:28;10.40;99.90
23597;DHT22;40226;50.874;4.394;2023-04-16T08:37:54;10.20;99.90
23597;DHT22;40226;50.874;4.394;2023-04-16T08:40:24;10.30;99.90
23597;DHT22;40226;50.874;4.394;2023-04-16T08:42:55;10.30;99.90
23597;DHT22;40226;50.874;4.394;2023-04-16T08:45:25;10.40;99.90
23597;DHT22;40226;50.874;4.394;2023-04-16T08:47:51;10.40;99.90
23597;DHT22;40226;50.874;4.394;2023-04-16T08:50:24;10.40;99.90
23597;DHT22;40226;50.874;4.394;2023-04-16T08:53:13;10.40;99.90
23597;DHT22;40226;50.874;4.394;2023-04-16T08:55:47;10.50;99.90
23597;DHT22;40226;50.874;4.394;2023-04-16T08:58:17;10.50;99.90
23597;DHT22;40226;50.874;4.394;2023-04-16T09:00:43;10.30;99.90
23597;DHT22;40226;50.874;4.394;2023-04-16T09:03:11;10.50;99.90
23597;DHT22;40226;50.874;4.394;2023-04-16T09:05:37;10.60;99.90
23597;DHT22;40226;50.874;4.394;2023-04-16T09:08:06;10.70;99.90
23597;DHT22;40226;50.874;4.394;2023-04-16T09:10:32;10.80;99.90
23597;DHT22;40226;50.874;4.394;2023-04-16T09:12:58;10.80;99.90
23597;DHT22;40226;50.874;4.394;2023-04-16T09:15:24;10.80;99.90
23597;DHT22;40226;50.874;4.394;2023-04-16T09:17:53;10.80;99.90
23597;DHT22;40226;50.874;4.394;2023-04-16T09:20:21;10.60;99.90
23597;DHT22;40226;50.874;4.394;2023-04-16T09:22:46;10.70;99.90
23597;DHT22;40226;50.874;4.394;2023-04-16T09:25:13;10.50;99.90
23597;DHT22;40226;50.874;4.394;2023-04-16T09:27:39;10.70;99.90
23597;DHT22;40226;50.874;4.394;2023-04-16T09:30:24;10.70;99.90
23597;DHT22;40226;50.874;4.394;2023-04-16T09:32:52;10.70;99.90
23597;DHT22;40226;50.874;4.394;2023-04-16T09:35:18;10.80;99.90
23597;DHT22;40226;50.874;4.394;2023-04-16T09:37:54;10.90;99.90
23597;DHT22;40226;50.874;4.394;2023-04-16T09:40:24;10.70;99.90
23597;DHT22;40226;50.874;4.394;2023-04-16T09:42:51;10.60;99.90
23597;DHT22;40226;50.874;4.394;2023-04-16T09:45:17;10.70;99.90
23597;DHT22;40226;50.874;4.394;2023-04-16T09:47:44;10.70;99.90
23597;DHT22;40226;50.874;4.394;2023-04-16T09:50:14;10.60;99.90
23597;DHT22;40226;50.874;4.394;2023-04-16T09:52:43;10.60;99.90
23597;DHT22;40226;50.874;4.394;2023-04-16T09:55:10;10.60;99.90
23597;DHT22;40226;50.874;4.394;2023-04-16T09:57:36;10.50;99.90
23597;DHT22;40226;50.874;4.394;2023-04-16T10:00:07;10.60;99.90
23597;DHT22;40226;50.874;4.394;2023-04-16T10:02:34;10.70;99.90
23597;DHT22;40226;50.874;4.394;2023-04-16T10:05:03;10.70;99.90
23597;DHT22;40226;50.874;4.394;2023-04-16T10:07:32;10.70;99.90
23597;DHT22;40226;50.874;4.394;2023-04-16T10:09:58;10.60;99.90
23597;DHT22;40226;50.874;4.394;2023-04-16T10:12:24;10.70;99.90
23597;DHT22;40226;50.874;4.394;2023-04-16T10:14:51;10.80;99.90
23597;DHT22;40226;50.874;4.394;2023-04-16T10:17:18;10.90;99.90
23597;DHT22;40226;50.874;4.394;2023-04-16T10:19:45;10.90;99.90
23597;DHT22;40226;50.874;4.394;2023-04-16T10:22:10;10.90;99.90
23597;DHT22;40226;50.874;4.394;2023-04-16T10:24:36;10.90;99.90
23597;DHT22;40226;50.874;4.394;2023-04-16T10:27:02;10.60;99.90
23597;DHT22;40226;50.874;4.394;2023-04-16T10:29:29;10.80;99.90
23597;DHT22;40226;50.874;4.394;2023-04-16T10:31:56;10.70;99.90
23597;DHT22;40226;50.874;4.394;2023-04-16T10:34:23;10.70;99.90
23597;DHT22;40226;50.874;4.394;2023-04-16T10:36:51;11.00;99.90
23597;DHT22;40226;50.874;4.394;2023-04-16T10:39:23;11.10;99.90
23597;DHT22;40226;50.874;4.394;2023-04-16T10:41:49;11.20;99.90
23597;DHT22;40226;50.874;4.394;2023-04-16T10:44:17;11.00;99.90
23597;DHT22;40226;50.874;4.394;2023-04-16T10:46:47;11.10;99.90
23597;DHT22;40226;50.874;4.394;2023-04-16T10:49:23;11.20;99.90
23597;DHT22;40226;50.874;4.394;2023-04-16T10:52:06;11.10;99.90
23597;DHT22;40226;50.874;4.394;2023-04-16T10:54:35;11.00;99.90
23597;DHT22;40226;50.874;4.394;2023-04-16T10:57:15;10.90;99.90
23597;DHT22;40226;50.874;4.394;2023-04-16T10:59:43;11.10;99.90
23597;DHT22;40226;50.874;4.394;2023-04-16T11:02:13;11.20;99.90
23597;DHT22;40226;50.874;4.394;2023-04-16T11:04:42;11.20;99.90
23597;DHT22;40226;50.874;4.394;2023-04-16T11:07:16;11.20;99.90
23597;DHT22;40226;50.874;4.394;2023-04-16T11:09:46;11.00;99.90
23597;DHT22;40226;50.874;4.394;2023-04-16T11:14:52;10.90;99.90
23597;DHT22;40226;50.874;4.394;2023-04-16T11:17:19;11.00;99.90
23597;DHT22;40226;50.874;4.394;2023-04-16T11:19:46;11.10;99.90
23597;DHT22;40226;50.874;4.394;2023-04-16T11:22:14;11.10;99.90
23597;DHT22;40226;50.874;4.394;2023-04-16T11:24:52;11.10;99.90
23597;DHT22;40226;50.874;4.394;2023-04-16T11:27:18;10.90;99.90
23597;DHT22;40226;50.874;4.394;2023-04-16T11:29:43;10.90;99.90
23597;DHT22;40226;50.874;4.394;2023-04-16T11:32:09;10.90;99.90
23597;DHT22;40226;50.874;4.394;2023-04-16T11:34:43;10.90;99.90
23597;DHT22;40226;50.874;4.394;2023-04-16T11:37:09;11.00;99.90
23597;DHT22;40226;50.874;4.394;2023-04-16T11:39:47;11.20;99.90
23597;DHT22;40226;50.874;4.394;2023-04-16T11:42:21;11.20;99.90
23597;DHT22;40226;50.874;4.394;2023-04-16T11:44:51;11.30;99.90
23597;DHT22;40226;50.874;4.394;2023-04-16T11:47:17;11.30;99.90
23597;DHT22;40226;50.874;4.394;2023-04-16T11:49:43;11.20;99.90
23597;DHT22;40226;50.874;4.394;2023-04-16T11:52:08;11.20;99.90
23597;DHT22;40226;50.874;4.394;2023-04-16T11:54:34;11.40;99.90
23597;DHT22;40226;50.874;4.394;2023-04-16T11:57:01;11.20;99.90
23597;DHT22;40226;50.874;4.394;2023-04-16T11:59:28;11.30;99.90
23597;DHT22;40226;50.874;4.394;2023-04-16T12:01:54;11.20;99.90
23597;DHT22;40226;50.874;4.394;2023-04-16T12:04:22;11.30;99.90
23597;DHT22;40226;50.874;4.394;2023-04-16T12:07:12;11.30;99.90
23597;DHT22;40226;50.874;4.394;2023-04-16T12:09:40;11.20;99.90
23597;DHT22;40226;50.874;4.394;2023-04-16T12:12:24;11.20;99.90
23597;DHT22;40226;50.874;4.394;2023-04-16T12:14:50;11.10;99.90
23597;DHT22;40226;50.874;4.394;2023-04-16T12:17:18;11.40;99.90
23597;DHT22;40226;50.874;4.394;2023-04-16T12:19:49;11.50;99.90
23597;DHT22;40226;50.874;4.394;2023-04-16T12:22:15;11.70;99.90
23597;DHT22;40226;50.874;4.394;2023-04-16T12:24:40;11.80;99.90
23597;DHT22;40226;50.874;4.394;2023-04-16T12:27:06;11.60;99.90
23597;DHT22;40226;50.874;4.394;2023-04-16T12:29:33;11.50;99.90
23597;DHT22;40226;50.874;4.394;2023-04-16T12:31:59;11.40;99.90
23597;DHT22;40226;50.874;4.394;2023-04-16T12:34:26;11.40;99.90
23597;DHT22;40226;50.874;4.394;2023-04-16T12:37:06;11.40;99.90
23597;DHT22;40226;50.874;4.394;2023-04-16T12:39:34;11.40;99.90
23597;DHT22;40226;50.874;4.394;2023-04-16T12:41:59;11.40;99.90
23597;DHT22;40226;50.874;4.394;2023-04-16T12:44:25;11.30;99.90
23597;DHT22;40226;50.874;4.394;2023-04-16T12:46:52;11.40;99.90
23597;DHT22;40226;50.874;4.394;2023-04-16T12:49:18;11.40;99.90
23597;DHT22;40226;50.874;4.394;2023-04-16T12:51:43;11.50;99.90
23597;DHT22;40226;50.874;4.394;2023-04-16T12:54:09;11.60;99.90
23597;DHT22;40226;50.874;4.394;2023-04-16T12:56:34;11.70;99.90
23597;DHT22;40226;50.874;4.394;2023-04-16T12:59:01;11.70;99.90
23597;DHT22;40226;50.874;4.394;2023-04-16T13:01:27;11.70;99.90
23597;DHT22;40226;50.874;4.394;2023-04-16T13:03:53;11.50;99.90
23597;DHT22;40226;50.874;4.394;2023-04-16T13:06:19;11.50;99.90
23597;DHT22;40226;50.874;4.394;2023-04-16T13:08:45;11.50;99.90
23597;DHT22;40226;50.874;4.394;2023-04-16T13:11:11;11.70;99.90
23597;DHT22;40226;50.874;4.394;2023-04-16T13:13:37;11.70;99.90
23597;DHT22;40226;50.874;4.394;2023-04-16T13:16:02;11.90;99.90
23597;DHT22;40226;50.874;4.394;2023-04-16T13:18:30;11.80;99.90
23597;DHT22;40226;50.874;4.394;2023-04-16T13:20:57;11.80;99.90
23597;DHT22;40226;50.874;4.394;2023-04-16T13:23:23;12.00;99.90
23597;DHT22;40226;50.874;4.394;2023-04-16T13:25:48;11.80;99.90
23597;DHT22;40226;50.874;4.394;2023-04-16T13:28:14;11.90;99.90
23597;DHT22;40226;50.874;4.394;2023-04-16T13:30:40;12.00;99.90
23597;DHT22;40226;50.874;4.394;2023-04-16T13:33:07;11.90;99.90
23597;DHT22;40226;50.874;4.394;2023-04-16T13:35:33;11.90;99.90
23597;DHT22;40226;50.874;4.394;2023-04-16T13:37:58;12.10;99.90
23597;DHT22;40226;50.874;4.394;2023-04-16T13:40:24;12.10;99.90
23597;DHT22;40226;50.874;4.394;2023-04-16T13:42:50;12.00;99.90
23597;DHT22;40226;50.874;4.394;2023-04-16T13:45:16;11.80;99.90
23597;DHT22;40226;50.874;4.394;2023-04-16T13:47:42;12.00;99.90
23597;DHT22;40226;50.874;4.394;2023-04-16T13:50:08;12.10;99.90
23597;DHT22;40226;50.874;4.394;2023-04-16T13:52:34;12.30;99.90
23597;DHT22;40226;50.874;4.394;2023-04-16T13:55:00;12.20;99.90
23597;DHT22;40226;50.874;4.394;2023-04-16T13:57:27;12.20;99.90
23597;DHT22;40226;50.874;4.394;2023-04-16T13:59:53;12.30;99.90
23597;DHT22;40226;50.874;4.394;2023-04-16T14:02:19;12.40;99.90
23597;DHT22;40226;50.874;4.394;2023-04-16T14:04:45;12.30;99.90
23597;DHT22;40226;50.874;4.394;2023-04-16T14:07:10;12.60;99.90
23597;DHT22;40226;50.874;4.394;2023-04-16T14:09:36;12.70;99.80
23597;DHT22;40226;50.874;4.394;2023-04-16T14:12:01;12.70;97.30
23597;DHT22;40226;50.874;4.394;2023-04-16T14:14:27;12.50;99.90
23597;DHT22;40226;50.874;4.394;2023-04-16T14:16:53;12.60;99.90
23597;DHT22;40226;50.874;4.394;2023-04-16T14:19:20;12.70;97.80
23597;DHT22;40226;50.874;4.394;2023-04-16T14:21:45;12.60;99.90
23597;DHT22;40226;50.874;4.394;2023-04-16T14:24:11;13.00;93.60
23597;DHT22;40226;50.874;4.394;2023-04-16T14:26:36;12.80;95.00
23597;DHT22;40226;50.874;4.394;2023-04-16T14:29:02;13.00;96.30
23597;DHT22;40226;50.874;4.394;2023-04-16T14:31:27;13.00;95.20
23597;DHT22;40226;50.874;4.394;2023-04-16T14:33:53;12.80;95.10
23597;DHT22;40226;50.874;4.394;2023-04-16T14:36:19;12.70;97.30
23597;DHT22;40226;50.874;4.394;2023-04-16T14:38:46;12.60;99.50
23597;DHT22;40226;50.874;4.394;2023-04-16T14:41:12;12.50;99.90
23597;DHT22;40226;50.874;4.394;2023-04-16T14:43:38;12.20;99.90
23597;DHT22;40226;50.874;4.394;2023-04-16T14:46:05;12.40;99.90
23597;DHT22;40226;50.874;4.394;2023-04-16T14:48:31;12.40;99.90
23597;DHT22;40226;50.874;4.394;2023-04-16T14:50:57;12.60;99.90
23597;DHT22;40226;50.874;4.394;2023-04-16T14:53:23;12.70;99.90
23597;DHT22;40226;50.874;4.394;2023-04-16T14:55:50;12.70;99.30
23597;DHT22;40226;50.874;4.394;2023-04-16T14:58:16;12.80;97.80
23597;DHT22;40226;50.874;4.394;2023-04-16T15:00:41;12.80;97.40
23597;DHT22;40226;50.874;4.394;2023-04-16T15:03:07;12.80;97.10
23597;DHT22;40226;50.874;4.394;2023-04-16T15:05:34;12.60;99.70
23597;DHT22;40226;50.874;4.394;2023-04-16T15:08:00;12.30;99.90
23597;DHT22;40226;50.874;4.394;2023-04-16T15:10:25;12.40;99.90
23597;DHT22;40226;50.874;4.394;2023-04-16T15:12:51;12.30;99.90
23597;DHT22;40226;50.874;4.394;2023-04-16T15:15:16;12.20;99.90
23597;DHT22;40226;50.874;4.394;2023-04-16T15:17:42;12.30;99.90
23597;DHT22;40226;50.874;4.394;2023-04-16T15:20:08;12.50;99.90
23597;DHT22;40226;50.874;4.394;2023-04-16T15:22:34;12.40;99.90
23597;DHT22;40226;50.874;4.394;2023-04-16T15:25:00;12.20;99.90
23597;DHT22;40226;50.874;4.394;2023-04-16T15:27:26;12.20;99.90
23597;DHT22;40226;50.874;4.394;2023-04-16T15:29:52;12.20;99.90
23597;DHT22;40226;50.874;4.394;2023-04-16T15:32:18;12.20;99.90
23597;DHT22;40226;50.874;4.394;2023-04-16T15:34:44;12.10;99.90